Time;durP1;ratioP1;P1;durP2;ratioP2;P2;SDS_P1;SDS_P2;PMS_P1;PMS_P2;Temp;Humidity;BMP_temperature;BMP_pressure;BME280_temperature;BME280_humidity;BME280_pressure;Samples;Min_cycle;Max_cycle;Signal;HPM_P1;HPM_P2
2022/03/16 00:01:54;;;;;;;56.17;32.00;;;6.40;99.90;;;;;;6242697;23;20091;-79
2022/03/16 00:04:20;;;;;;;62.95;33.33;;;6.60;99.90;;;;;;6242808;23;20012;-81
2022/03/16 00:06:46;;;;;;;51.03;32.03;;;7.30;99.90;;;;;;6242928;23;20016;-82
2022/03/16 00:09:12;;;;;;;53.83;31.10;;;6.70;99.90;;;;;;6242825;23;20099;-80
2022/03/16 00:11:37;;;;;;;57.33;33.17;;;6.40;99.90;;;;;;6242970;23;20318;-79
2022/03/16 00:14:03;;;;;;;53.75;32.20;;;7.00;99.90;;;;;;6242954;23;20430;-81
2022/03/16 00:16:29;;;;;;;54.80;32.90;;;6.30;99.90;;;;;;6242754;23;20027;-81
2022/03/16 00:18:55;;;;;;;60.25;32.72;;;6.30;99.90;;;;;;6242121;23;20012;-79
2022/03/16 00:21:35;;;;;;;55.45;33.20;;;6.40;99.90;;;;;;6242565;23;20020;-81
2022/03/16 00:24:01;;;;;;;53.08;31.08;;;6.20;99.90;;;;;;6214776;23;20026;-80
2022/03/16 00:26:28;;;;;;;53.55;32.50;;;6.60;99.90;;;;;;6214905;23;20074;-81
2022/03/16 00:28:53;;;;;;;57.10;33.67;;;6.20;99.90;;;;;;6242695;23;20012;-80
2022/03/16 00:31:19;;;;;;;55.75;33.55;;;6.10;99.90;;;;;;6240636;23;20016;-80
2022/03/16 00:33:45;;;;;;;51.53;31.05;;;6.10;99.90;;;;;;6242316;23;20008;-80
2022/03/16 00:36:10;;;;;;;59.03;34.08;;;6.90;99.90;;;;;;6242783;23;20020;-82
2022/03/16 00:38:36;;;;;;;58.10;31.63;;;6.10;99.90;;;;;;6242619;23;20379;-80
2022/03/16 00:41:03;;;;;;;62.30;33.72;;;6.40;99.90;;;;;;6242457;23;20090;-80
2022/03/16 00:43:28;;;;;;;58.20;33.45;;;6.00;99.90;;;;;;6242218;23;20022;-80
2022/03/16 00:45:54;;;;;;;62.30;34.67;;;6.00;99.90;;;;;;6242452;23;20091;-81
2022/03/16 00:48:20;;;;;;;58.08;33.35;;;5.90;99.90;;;;;;6241947;23;20070;-82
2022/03/16 00:50:45;;;;;;;71.82;36.58;;;6.60;99.90;;;;;;6239089;23;20026;-81
2022/03/16 00:53:11;;;;;;;67.20;34.97;;;6.60;99.90;;;;;;6242479;23;20495;-80
2022/03/16 00:55:37;;;;;;;57.75;33.83;;;5.90;99.90;;;;;;6242334;23;20016;-82
2022/03/16 00:58:03;;;;;;;56.08;33.03;;;6.70;99.90;;;;;;6242440;23;20070;-80
2022/03/16 01:00:29;;;;;;;55.42;32.30;;;6.30;99.90;;;;;;6242262;23;20031;-79
2022/03/16 01:02:55;;;;;;;55.53;32.20;;;6.10;99.90;;;;;;6242005;23;20018;-81
2022/03/16 01:05:21;;;;;;;55.78;33.22;;;5.80;99.90;;;;;;6214550;23;20058;-81
2022/03/16 01:07:47;;;;;;;54.03;32.70;;;5.80;99.90;;;;;;6242101;23;20491;-80
2022/03/16 01:10:13;;;;;;;59.13;33.35;;;6.20;99.90;;;;;;6242867;23;20016;-79
2022/03/16 01:12:39;;;;;;;52.45;31.65;;;6.10;99.90;;;;;;6242430;23;20088;-80
2022/03/16 01:15:06;;;;;;;51.35;31.25;;;6.20;99.90;;;;;;6242287;23;20046;-78
2022/03/16 01:17:32;;;;;;;50.85;30.40;;;5.60;99.90;;;;;;6241831;23;20024;-80
2022/03/16 01:19:57;;;;;;;53.35;30.27;;;5.50;99.90;;;;;;6241531;23;20020;-80
2022/03/16 01:22:23;;;;;;;57.67;32.83;;;5.80;99.90;;;;;;6242227;23;20044;-80
2022/03/16 01:24:49;;;;;;;52.95;30.77;;;5.50;99.90;;;;;;6214790;23;20413;-79
2022/03/16 01:27:14;;;;;;;56.58;33.28;;;6.00;99.90;;;;;;6242352;23;20054;-79
2022/03/16 01:29:40;;;;;;;51.22;31.33;;;5.40;99.90;;;;;;6242237;23;20015;-80
2022/03/16 01:32:06;;;;;;;53.60;31.50;;;5.80;99.90;;;;;;6214725;23;20020;-80
2022/03/16 01:34:31;;;;;;;55.35;31.67;;;5.40;99.90;;;;;;6242188;23;20024;-81
2022/03/16 01:36:57;;;;;;;60.05;34.13;;;5.40;99.90;;;;;;6241702;23;20079;-81
2022/03/16 01:39:23;;;;;;;51.28;29.05;;;6.20;99.90;;;;;;6241555;23;20016;-80
2022/03/16 01:41:50;;;;;;;58.20;33.85;;;5.30;99.90;;;;;;6241780;23;20021;-79
2022/03/16 01:44:16;;;;;;;57.60;31.75;;;5.70;99.90;;;;;;6242028;23;20020;-81
2022/03/16 01:46:41;;;;;;;46.05;28.42;;;5.90;99.90;;;;;;6241891;23;20526;-80
2022/03/16 01:49:07;;;;;;;130.07;25.15;;;5.50;99.90;;;;;;6241930;23;20016;-79
2022/03/16 01:51:34;;;;;;;62.83;26.05;;;5.10;99.90;;;;;;6241596;23;20024;-79
2022/03/16 01:54:00;;;;;;;50.63;30.38;;;5.00;99.90;;;;;;6241727;23;20016;-81
2022/03/16 01:56:26;;;;;;;52.05;30.42;;;5.30;99.90;;;;;;6214699;23;20435;-80
2022/03/16 01:58:52;;;;;;;58.13;32.55;;;5.40;99.90;;;;;;6189865;23;20058;-80
2022/03/16 02:01:18;;;;;;;51.80;29.85;;;4.90;99.90;;;;;;6241549;23;20082;-80
2022/03/16 02:03:43;;;;;;;54.92;31.35;;;4.90;99.90;;;;;;6214714;23;20024;-80
2022/03/16 02:06:09;;;;;;;56.72;31.70;;;4.90;99.90;;;;;;6241921;23;20019;-80
2022/03/16 02:08:40;;;;;;;56.28;31.27;;;5.20;99.90;;;;;;6241490;23;20710;-81
2022/03/16 02:11:06;;;;;;;46.20;27.23;;;5.10;99.90;;;;;;6241721;23;20024;-80
2022/03/16 02:13:34;;;;;;;53.70;31.77;;;5.50;99.90;;;;;;6241518;23;20023;-78
2022/03/16 02:16:01;;;;;;;60.50;31.88;;;5.50;99.90;;;;;;6241636;23;20043;-79
2022/03/16 02:18:26;;;;;;;55.80;32.08;;;4.80;99.90;;;;;;6241862;23;20058;-79
2022/03/16 02:20:54;;;;;;;53.20;31.30;;;4.80;99.90;;;;;;6214319;23;20020;-79
2022/03/16 02:23:20;;;;;;;55.08;30.52;;;5.30;99.90;;;;;;6237995;23;20086;-80
2022/03/16 02:25:50;;;;;;;52.22;30.40;;;4.70;99.90;;;;;;6241932;23;20032;-80
2022/03/16 02:28:16;;;;;;;63.53;32.88;;;5.20;99.90;;;;;;6241101;23;20075;-83
2022/03/16 02:30:42;;;;;;;54.30;30.60;;;4.70;99.90;;;;;;6241825;23;20016;-80
2022/03/16 02:33:09;;;;;;;56.40;30.67;;;5.00;99.90;;;;;;6214683;23;20020;-79
2022/03/16 02:35:35;;;;;;;54.13;33.05;;;4.60;99.90;;;;;;6241691;23;20051;-78
2022/03/16 02:38:01;;;;;;;53.63;32.22;;;4.60;99.90;;;;;;6241555;23;20024;-79
2022/03/16 02:40:27;;;;;;;56.38;31.77;;;4.60;99.90;;;;;;6214959;23;20078;-80
2022/03/16 02:42:53;;;;;;;52.83;30.15;;;4.60;99.90;;;;;;6215020;23;20019;-78
2022/03/16 02:45:19;;;;;;;58.28;31.83;;;4.50;99.90;;;;;;6188728;23;20020;-80
2022/03/16 02:47:45;;;;;;;60.92;33.05;;;4.60;99.90;;;;;;6188849;23;20022;-82
2022/03/16 02:50:12;;;;;;;56.00;32.25;;;4.50;99.90;;;;;;6241488;23;20020;-81
2022/03/16 02:52:39;;;;;;;54.65;31.52;;;4.60;99.90;;;;;;6239753;23;20020;-79
2022/03/16 02:55:06;;;;;;;58.78;32.20;;;5.00;99.90;;;;;;6241401;23;20012;-79
2022/03/16 02:57:32;;;;;;;57.45;32.67;;;4.60;99.90;;;;;;6241547;23;20094;-79
2022/03/16 02:59:58;;;;;;;55.70;32.67;;;4.50;99.90;;;;;;6241755;23;20035;-79
2022/03/16 03:02:23;;;;;;;57.30;32.55;;;4.60;99.90;;;;;;6241439;23;20016;-79
2022/03/16 03:04:49;;;;;;;66.82;32.92;;;4.70;99.90;;;;;;6241458;23;20031;-81
2022/03/16 03:07:15;;;;;;;57.33;32.45;;;5.10;99.90;;;;;;6241796;23;20020;-80
2022/03/16 03:09:41;;;;;;;55.97;31.73;;;4.60;99.90;;;;;;6241236;23;20746;-80
2022/03/16 03:12:07;;;;;;;64.13;35.03;;;4.60;99.90;;;;;;6242242;23;20380;-83
2022/03/16 03:14:33;;;;;;;57.33;31.92;;;4.70;99.90;;;;;;6243713;23;20020;-81
2022/03/16 03:16:59;;;;;;;56.53;31.25;;;5.40;99.90;;;;;;6243450;23;20008;-79
2022/03/16 03:19:25;;;;;;;58.70;32.05;;;5.20;99.90;;;;;;6243165;23;20016;-79
2022/03/16 03:21:50;;;;;;;51.03;29.10;;;4.70;99.90;;;;;;6242945;23;20054;-82
2022/03/16 03:24:16;;;;;;;57.78;31.88;;;4.60;99.90;;;;;;6242616;23;20016;-80
2022/03/16 03:26:42;;;;;;;55.03;33.38;;;4.70;99.90;;;;;;6243212;23;20024;-79
2022/03/16 03:29:08;;;;;;;57.10;32.55;;;5.30;99.90;;;;;;6216004;23;20384;-80
2022/03/16 03:31:34;;;;;;;60.70;33.75;;;4.60;99.90;;;;;;6243064;23;20016;-80
2022/03/16 03:34:01;;;;;;;62.08;34.72;;;4.70;99.90;;;;;;6242954;23;20050;-80
2022/03/16 03:36:27;;;;;;;57.65;32.13;;;4.60;99.90;;;;;;6242388;23;20022;-81
2022/03/16 03:38:52;;;;;;;57.42;31.85;;;4.60;99.90;;;;;;6242883;23;20016;-80
2022/03/16 03:41:18;;;;;;;60.55;32.13;;;4.60;99.90;;;;;;6242811;23;20058;-81
2022/03/16 03:43:43;;;;;;;55.28;32.40;;;4.60;99.90;;;;;;6215839;23;20390;-79
2022/03/16 03:46:10;;;;;;;57.00;32.78;;;4.60;99.90;;;;;;6242749;23;20376;-79
2022/03/16 03:48:35;;;;;;;58.58;31.75;;;4.50;99.90;;;;;;6243006;23;20051;-79
2022/03/16 03:51:01;;;;;;;60.13;34.20;;;4.50;99.90;;;;;;6242712;23;20097;-82
2022/03/16 03:53:26;;;;;;;59.78;32.63;;;5.10;99.90;;;;;;6189111;23;20460;-83
2022/03/16 03:55:52;;;;;;;60.35;33.30;;;4.50;99.90;;;;;;6242401;23;20099;-79
2022/03/16 03:58:18;;;;;;;61.42;34.00;;;4.50;99.90;;;;;;6243107;23;20024;-81
2022/03/16 04:00:43;;;;;;;54.53;30.73;;;5.20;99.90;;;;;;6243040;23;20023;-79
2022/03/16 04:03:09;;;;;;;58.15;34.78;;;4.40;99.90;;;;;;6241109;23;20024;-82
2022/03/16 04:05:35;;;;;;;63.75;31.95;;;5.00;99.90;;;;;;6242721;23;20095;-82
2022/03/16 04:08:00;;;;;;;60.58;32.30;;;5.20;99.90;;;;;;6242594;23;20012;-80
2022/03/16 04:10:26;;;;;;;59.50;33.03;;;5.00;99.90;;;;;;6242718;23;20016;-81
2022/03/16 04:12:52;;;;;;;70.03;33.95;;;4.30;99.90;;;;;;6242584;23;20019;-81
2022/03/16 04:15:20;;;;;;;110.03;33.80;;;4.30;99.90;;;;;;6215568;23;20016;-83
2022/03/16 04:17:46;;;;;;;52.35;27.70;;;4.30;99.90;;;;;;6242443;23;20429;-80
2022/03/16 04:20:12;;;;;;;46.10;27.10;;;4.20;99.90;;;;;;6242571;23;20449;-81
2022/03/16 04:22:38;;;;;;;59.40;27.45;;;4.20;99.90;;;;;;6242032;23;20012;-79
2022/03/16 04:25:05;;;;;;;42.28;25.20;;;4.20;99.90;;;;;;6242230;23;20043;-80
2022/03/16 04:27:30;;;;;;;52.42;27.80;;;4.20;99.90;;;;;;6214477;23;20475;-80
2022/03/16 04:29:57;;;;;;;59.45;27.48;;;4.10;99.90;;;;;;6242681;23;20015;-80
2022/03/16 04:32:23;;;;;;;91.95;29.33;;;4.10;99.90;;;;;;6242806;23;20368;-80
2022/03/16 04:34:48;;;;;;;56.42;27.13;;;4.10;99.90;;;;;;6214315;23;20030;-82
2022/03/16 04:37:14;;;;;;;41.00;25.33;;;4.10;99.90;;;;;;6242771;23;20009;-80
2022/03/16 04:39:40;;;;;;;56.13;26.90;;;4.10;99.90;;;;;;6214985;23;20031;-79
2022/03/16 04:42:06;;;;;;;49.53;29.15;;;4.90;99.90;;;;;;6215077;23;20397;-79
2022/03/16 04:44:32;;;;;;;76.95;28.42;;;4.00;99.90;;;;;;6242392;23;20046;-80
2022/03/16 04:46:58;;;;;;;40.70;24.52;;;4.00;99.90;;;;;;6242587;23;20034;-79
2022/03/16 04:49:23;;;;;;;42.28;25.08;;;4.60;99.90;;;;;;6241979;23;20016;-79
2022/03/16 04:51:49;;;;;;;46.47;26.52;;;4.00;99.90;;;;;;6242402;23;20066;-81
2022/03/16 04:54:16;;;;;;;45.67;26.98;;;4.30;99.90;;;;;;6242008;23;20054;-80
2022/03/16 04:56:42;;;;;;;43.65;25.95;;;4.90;99.90;;;;;;6242536;23;20393;-81
2022/03/16 04:59:08;;;;;;;42.88;25.58;;;4.00;99.90;;;;;;6214992;23;20016;-79
2022/03/16 05:01:34;;;;;;;42.10;24.48;;;4.40;99.90;;;;;;6242426;23;20123;-79
2022/03/16 05:04:00;;;;;;;43.75;26.80;;;3.90;99.90;;;;;;6214975;23;20413;-79
2022/03/16 05:06:26;;;;;;;41.30;25.55;;;3.90;99.90;;;;;;6214656;23;20111;-80
2022/03/16 05:08:51;;;;;;;39.78;24.30;;;3.90;99.90;;;;;;6241627;23;20089;-80
2022/03/16 05:11:20;;;;;;;39.55;24.70;;;4.20;99.90;;;;;;6242158;23;20034;-80
2022/03/16 05:13:46;;;;;;;39.60;25.20;;;4.20;99.90;;;;;;6214582;23;20020;-80
2022/03/16 05:16:12;;;;;;;38.90;24.33;;;4.30;99.90;;;;;;6241961;23;20024;-80
2022/03/16 05:18:40;;;;;;;39.95;24.35;;;4.20;99.90;;;;;;6241902;23;20050;-79
2022/03/16 05:21:09;;;;;;;41.45;25.15;;;4.10;99.90;;;;;;6214473;23;20087;-81
2022/03/16 05:23:35;;;;;;;40.20;25.80;;;4.70;99.90;;;;;;6241715;23;20095;-80
2022/03/16 05:26:01;;;;;;;37.75;24.58;;;3.90;99.90;;;;;;6242257;23;20051;-79
2022/03/16 05:28:27;;;;;;;39.58;25.80;;;3.70;99.90;;;;;;6242270;23;20016;-79
2022/03/16 05:30:52;;;;;;;43.00;24.80;;;4.20;99.90;;;;;;6241689;23;20095;-80
2022/03/16 05:33:18;;;;;;;42.00;25.77;;;3.70;99.90;;;;;;6242430;23;20058;-79
2022/03/16 05:35:44;;;;;;;44.78;25.50;;;3.70;99.90;;;;;;6242023;23;20685;-81
2022/03/16 05:38:12;;;;;;;56.47;31.15;;;3.80;99.90;;;;;;6241940;23;20380;-81
2022/03/16 05:40:42;;;;;;;50.75;29.58;;;4.40;99.90;;;;;;6241838;23;20090;-80
2022/03/16 05:43:09;;;;;;;50.95;27.63;;;3.90;99.90;;;;;;6215150;23;20141;-80
2022/03/16 05:45:36;;;;;;;48.30;27.75;;;3.80;99.90;;;;;;6241755;23;20020;-80
2022/03/16 05:48:02;;;;;;;51.60;29.20;;;3.80;99.90;;;;;;6241595;23;20031;-78
2022/03/16 05:50:28;;;;;;;48.92;28.77;;;3.80;99.90;;;;;;6241728;23;20437;-80
2022/03/16 05:53:01;;;;;;;47.47;27.25;;;4.70;99.90;;;;;;6241991;23;20061;-80
2022/03/16 05:55:28;;;;;;;42.13;26.05;;;3.80;99.90;;;;;;6241536;23;20027;-80
2022/03/16 05:57:53;;;;;;;42.03;26.88;;;3.80;99.90;;;;;;6241889;23;20020;-80
2022/03/16 06:00:22;;;;;;;40.83;26.30;;;3.80;99.90;;;;;;6240857;23;20016;-84
2022/03/16 06:02:49;;;;;;;47.58;28.63;;;3.90;99.90;;;;;;6242137;23;20101;-80
2022/03/16 06:05:16;;;;;;;41.28;26.63;;;3.90;99.90;;;;;;6242136;23;20375;-81
2022/03/16 06:07:42;;;;;;;46.97;26.83;;;3.90;99.90;;;;;;6241930;23;20020;-81
2022/03/16 06:10:10;;;;;;;43.63;28.17;;;3.90;99.90;;;;;;6214398;23;20024;-81
2022/03/16 06:12:55;;;;;;;41.90;27.20;;;4.50;99.90;;;;;;6189254;23;20074;-80
2022/03/16 06:16:03;;;;;;;43.90;26.58;;;3.50;99.90;;;;;;6184216;23;20107;-80
2022/03/16 06:18:37;;;;;;;41.00;27.83;;;3.80;99.90;;;;;;6184061;23;20111;-82
2022/03/16 06:21:02;;;;;;;41.35;25.83;;;4.10;99.90;;;;;;6209205;23;20028;-81
2022/03/16 06:23:29;;;;;;;39.75;26.98;;;4.00;99.90;;;;;;6209482;23;20020;-80
2022/03/16 06:25:54;;;;;;;41.17;25.40;;;4.00;99.90;;;;;;6211475;23;20061;-81
2022/03/16 06:28:20;;;;;;;36.97;24.73;;;4.00;99.90;;;;;;6211195;23;20023;-81
2022/03/16 06:30:45;;;;;;;39.35;25.25;;;4.70;99.90;;;;;;6209375;23;20021;-81
2022/03/16 06:33:11;;;;;;;40.30;26.08;;;4.10;99.90;;;;;;6211049;23;20020;-81
2022/03/16 06:35:37;;;;;;;36.20;24.70;;;4.10;99.90;;;;;;6211538;23;20143;-81
2022/03/16 06:38:03;;;;;;;38.00;24.40;;;4.10;99.90;;;;;;6209302;23;20450;-81
2022/03/16 06:40:28;;;;;;;39.15;25.15;;;4.10;99.90;;;;;;6211455;23;20020;-80
2022/03/16 06:42:56;;;;;;;33.42;22.67;;;4.70;99.90;;;;;;6211430;23;20532;-81
2022/03/16 06:45:24;;;;;;;34.00;22.80;;;4.10;99.90;;;;;;6211580;23;20023;-80
2022/03/16 06:47:53;;;;;;;36.38;24.27;;;4.60;99.90;;;;;;6212191;23;20031;-80
2022/03/16 06:50:20;;;;;;;37.13;24.02;;;4.60;99.90;;;;;;6213094;23;20449;-80
2022/03/16 06:52:46;;;;;;;36.22;24.58;;;4.20;99.90;;;;;;6211181;23;20024;-80
2022/03/16 06:55:13;;;;;;;40.40;26.00;;;4.90;99.90;;;;;;6213379;23;20023;-82
2022/03/16 06:57:39;;;;;;;40.30;26.23;;;5.10;99.90;;;;;;6212967;23;20438;-82
2022/03/16 07:00:08;;;;;;;36.72;24.92;;;4.30;99.90;;;;;;6212947;23;20027;-80
2022/03/16 07:02:57;;;;;;;38.42;25.05;;;4.30;99.90;;;;;;6212658;23;20016;-80
2022/03/16 07:05:31;;;;;;;36.53;23.33;;;4.30;99.90;;;;;;6213389;23;20025;-82
2022/03/16 07:07:58;;;;;;;38.15;24.90;;;4.30;99.90;;;;;;6213424;23;20071;-80
2022/03/16 07:10:25;;;;;;;38.55;26.23;;;4.70;99.90;;;;;;6212946;23;20063;-82
2022/03/16 07:12:51;;;;;;;38.55;25.08;;;5.30;99.90;;;;;;6213197;23;20093;-82
2022/03/16 07:15:17;;;;;;;36.03;24.02;;;5.30;99.90;;;;;;6221542;23;20517;-81
2022/03/16 07:17:42;;;;;;;40.25;25.25;;;4.50;99.90;;;;;;6216110;23;20353;-82
2022/03/16 07:20:09;;;;;;;37.58;25.80;;;4.60;99.90;;;;;;6242735;23;20035;-80
2022/03/16 07:22:35;;;;;;;39.65;25.83;;;4.60;99.90;;;;;;6243447;23;20012;-81
2022/03/16 07:25:05;;;;;;;40.85;26.08;;;4.70;99.90;;;;;;6215768;23;20077;-82
2022/03/16 07:27:31;;;;;;;40.38;26.92;;;4.80;99.90;;;;;;6243362;23;20020;-80
2022/03/16 07:29:57;;;;;;;37.80;25.27;;;4.80;99.90;;;;;;6241032;23;20027;-81
2022/03/16 07:32:23;;;;;;;42.97;25.95;;;4.90;99.90;;;;;;6243261;23;20035;-82
2022/03/16 07:34:49;;;;;;;37.38;24.95;;;5.00;99.90;;;;;;6242980;23;20544;-79
2022/03/16 07:37:15;;;;;;;39.47;26.73;;;5.20;99.90;;;;;;6215920;23;20051;-81
2022/03/16 07:39:41;;;;;;;42.33;26.13;;;5.80;99.90;;;;;;6242795;23;20020;-79
2022/03/16 07:42:06;;;;;;;44.72;27.13;;;5.20;99.90;;;;;;6243301;23;20016;-80
2022/03/16 07:44:32;;;;;;;41.50;26.35;;;5.20;99.90;;;;;;6242969;23;20199;-81
2022/03/16 07:46:59;;;;;;;39.53;25.80;;;5.70;99.90;;;;;;6243437;23;20326;-80
2022/03/16 07:49:25;;;;;;;43.53;26.50;;;5.30;99.90;;;;;;6243008;23;20012;-81
2022/03/16 07:51:51;;;;;;;48.30;28.25;;;6.20;99.90;;;;;;6215866;23;20019;-84
2022/03/16 07:54:16;;;;;;;47.78;29.55;;;5.80;99.90;;;;;;6243172;23;20012;-80
2022/03/16 07:56:43;;;;;;;43.80;26.90;;;5.60;99.90;;;;;;6243379;23;20090;-81
2022/03/16 07:59:09;;;;;;;42.00;26.40;;;6.10;99.90;;;;;;6216212;23;20058;-81
2022/03/16 08:01:35;;;;;;;44.30;28.75;;;5.70;99.90;;;;;;6243403;23;20016;-79
2022/03/16 08:04:00;;;;;;;43.58;27.08;;;6.40;99.90;;;;;;6243319;23;20073;-80
2022/03/16 08:06:26;;;;;;;48.08;27.35;;;6.70;99.90;;;;;;6215467;23;20107;-80
2022/03/16 08:08:53;;;;;;;41.38;26.27;;;5.90;99.90;;;;;;6243347;23;20093;-81
2022/03/16 08:11:18;;;;;;;42.10;27.80;;;6.00;99.90;;;;;;6243336;23;20020;-80
2022/03/16 08:13:44;;;;;;;43.47;26.67;;;6.10;99.90;;;;;;6242814;23;20012;-78
2022/03/16 08:16:10;;;;;;;41.33;25.98;;;6.20;99.90;;;;;;6215545;23;20322;-80
2022/03/16 08:18:36;;;;;;;40.20;26.67;;;6.30;99.90;;;;;;6242645;23;20512;-81
2022/03/16 08:21:02;;;;;;;42.83;26.30;;;7.40;99.90;;;;;;6242219;23;20063;-80
2022/03/16 08:23:28;;;;;;;38.75;24.40;;;7.30;99.90;;;;;;6242542;23;20614;-81
2022/03/16 08:25:55;;;;;;;41.08;25.65;;;7.00;99.90;;;;;;6242829;23;20016;-82
2022/03/16 08:28:21;;;;;;;38.08;24.58;;;6.80;99.90;;;;;;6242995;23;20137;-79
2022/03/16 08:30:47;;;;;;;44.20;25.10;;;6.90;99.90;;;;;;6242808;23;20649;-81
2022/03/16 08:33:12;;;;;;;39.72;25.58;;;7.80;99.90;;;;;;6215012;23;20027;-81
2022/03/16 08:35:39;;;;;;;38.63;25.80;;;7.60;99.90;;;;;;6242545;23;20376;-82
2022/03/16 08:38:04;;;;;;;42.13;24.80;;;7.40;99.90;;;;;;6242429;23;20405;-80
2022/03/16 08:40:30;;;;;;;37.42;23.88;;;7.50;99.90;;;;;;6242296;23;20020;-82
2022/03/16 08:42:56;;;;;;;35.17;25.33;;;8.50;99.90;;;;;;6242534;23;20024;-81
2022/03/16 08:45:23;;;;;;;40.00;24.85;;;8.20;99.90;;;;;;6240149;23;20020;-80
2022/03/16 08:47:49;;;;;;;36.40;26.02;;;8.00;99.90;;;;;;6242120;23;20020;-80
2022/03/16 08:50:14;;;;;;;40.15;24.40;;;8.20;99.90;;;;;;6242337;23;20031;-78
2022/03/16 08:52:40;;;;;;;40.78;24.55;;;8.40;99.90;;;;;;6213732;23;20091;-79
2022/03/16 08:55:06;;;;;;;33.85;23.05;;;8.70;99.90;;;;;;6242484;23;20449;-81
2022/03/16 08:57:32;;;;;;;37.35;23.60;;;8.90;99.90;;;;;;6242132;23;20092;-80
2022/03/16 08:59:58;;;;;;;35.03;23.75;;;9.20;99.90;;;;;;6190031;23;20018;-80
2022/03/16 09:02:24;;;;;;;36.35;23.88;;;9.70;99.90;;;;;;6241871;23;20090;-81
2022/03/16 09:04:52;;;;;;;39.05;25.42;;;10.30;99.90;;;;;;6241726;23;20059;-78
2022/03/16 09:07:23;;;;;;;35.17;23.10;;;9.80;99.90;;;;;;6214348;23;20016;-81
2022/03/16 09:10:08;;;;;;;35.33;23.33;;;10.70;99.90;;;;;;6214170;23;20355;-79
2022/03/16 09:12:35;;;;;;;37.60;21.48;;;10.20;99.90;;;;;;6241689;23;20315;-78
2022/03/16 09:15:02;;;;;;;38.65;24.65;;;11.20;99.90;;;;;;6214859;22;20028;-78
2022/03/16 09:17:30;;;;;;;34.42;23.08;;;10.60;99.90;;;;;;6244680;22;20432;-78
2022/03/16 09:19:56;;;;;;;39.00;24.35;;;11.00;99.90;;;;;;6270676;22;20046;-79
2022/03/16 09:22:22;;;;;;;39.85;24.48;;;11.20;99.90;;;;;;6272691;22;20011;-79
2022/03/16 09:24:48;;;;;;;36.17;23.65;;;10.70;99.90;;;;;;6245686;22;20023;-80
2022/03/16 09:27:16;;;;;;;35.70;23.35;;;10.90;99.90;;;;;;6272724;22;20069;-79
2022/03/16 09:29:45;;;;;;;41.08;24.40;;;11.50;99.90;;;;;;6272448;22;20329;-80
2022/03/16 09:32:10;;;;;;;40.92;23.00;;;11.70;99.90;;;;;;6270625;22;20015;-82
2022/03/16 09:34:37;;;;;;;35.58;21.75;;;11.40;99.90;;;;;;6270489;22;20391;-78
2022/03/16 09:37:03;;;;;;;36.20;20.13;;;12.10;99.90;;;;;;6272610;22;20034;-82
2022/03/16 09:39:29;;;;;;;32.63;20.20;;;11.80;99.90;;;;;;6270440;22;20022;-80
2022/03/16 09:41:56;;;;;;;33.20;20.83;;;12.20;99.90;;;;;;6272669;22;20706;-81
2022/03/16 09:44:23;;;;;;;32.40;19.27;;;12.20;99.90;;;;;;6272296;22;20015;-80
2022/03/16 09:46:52;;;;;;;31.92;19.08;;;12.10;99.90;;;;;;6272918;22;20086;-81
2022/03/16 09:49:18;;;;;;;26.77;16.83;;;12.30;99.90;;;;;;6272580;22;20674;-83
2022/03/16 09:51:44;;;;;;;30.08;17.05;;;12.50;99.90;;;;;;6244163;22;20026;-83
2022/03/16 09:54:09;;;;;;;31.08;17.92;;;12.50;99.90;;;;;;6272167;22;20074;-82
2022/03/16 09:56:36;;;;;;;28.20;16.50;;;12.60;99.90;;;;;;6272524;22;20012;-82
2022/03/16 09:59:01;;;;;;;24.63;16.20;;;13.20;99.90;;;;;;6268693;22;20574;-83
2022/03/16 10:01:27;;;;;;;27.42;15.38;;;12.80;99.90;;;;;;6270940;22;20019;-82
2022/03/16 10:03:59;;;;;;;21.63;14.38;;;13.00;99.90;;;;;;6245039;22;20022;-84
2022/03/16 10:06:26;;;;;;;25.00;14.27;;;13.00;99.90;;;;;;6272536;22;20388;-84
2022/03/16 10:14:20;;;;;;;18.85;12.93;;;13.70;99.90;;;;;;6272604;22;20027;-81
2022/03/16 10:19:51;;;;;;;18.25;11.85;;;13.50;99.90;;;;;;6272502;22;20150;-84
2022/03/16 10:22:25;;;;;;;17.55;11.35;;;13.60;99.90;;;;;;6273437;22;20843;-83
2022/03/16 10:24:59;;;;;;;16.17;10.60;;;13.60;99.90;;;;;;6247176;22;20015;-85
2022/03/16 10:27:25;;;;;;;15.75;11.02;;;13.70;99.90;;;;;;6273814;22;20062;-83
2022/03/16 10:29:52;;;;;;;14.57;10.15;;;13.70;99.90;;;;;;6272033;22;20518;-82
2022/03/16 10:32:20;;;;;;;17.73;10.98;;;13.70;99.90;;;;;;6271954;22;20049;-83
2022/03/16 10:34:54;;;;;;;16.20;10.18;;;13.90;99.90;;;;;;6274673;22;20012;-86
2022/03/16 10:37:24;;;;;;;16.35;10.23;;;13.90;99.90;;;;;;6273241;22;20047;-85
2022/03/16 10:39:51;;;;;;;14.27;10.63;;;14.00;99.90;;;;;;6272604;22;20019;-84
2022/03/16 10:48:01;;;;;;;16.85;9.32;;;14.10;99.90;;;;;;6274051;22;20054;-83
2022/03/16 10:50:27;;;;;;;18.35;10.05;;;14.00;99.90;;;;;;6273935;22;20066;-85
2022/03/16 10:52:54;;;;;;;14.35;9.52;;;14.20;99.90;;;;;;6272518;22;20016;-83
2022/03/16 10:55:21;;;;;;;17.13;10.77;;;14.40;99.90;;;;;;6274310;22;20007;-85
2022/03/16 10:57:50;;;;;;;12.80;8.80;;;14.40;99.90;;;;;;6273734;22;20047;-80
2022/03/16 11:00:17;;;;;;;18.60;9.38;;;14.90;99.90;;;;;;6274513;22;20037;-83
2022/03/16 11:02:45;;;;;;;14.40;9.35;;;14.30;99.90;;;;;;6274282;22;20034;-84
2022/03/16 11:05:11;;;;;;;16.52;9.00;;;14.60;99.90;;;;;;6274039;22;20532;-85
2022/03/16 11:07:38;;;;;;;14.07;8.90;;;14.70;99.90;;;;;;6273727;22;20047;-85
2022/03/16 11:10:08;;;;;;;19.88;9.50;;;14.80;99.90;;;;;;6272628;22;20023;-83
2022/03/16 11:15:19;;;;;;;14.77;9.77;;;15.10;99.90;;;;;;6273839;22;20041;-84
2022/03/16 11:17:45;;;;;;;15.35;9.75;;;15.20;99.90;;;;;;6273681;22;20484;-85
2022/03/16 11:20:12;;;;;;;14.60;9.50;;;15.30;99.90;;;;;;6246585;22;20019;-86
2022/03/16 11:25:46;;;;;;;14.07;9.20;;;15.60;99.90;;;;;;6154571;23;20458;-81
2022/03/16 11:28:16;;;;;;;15.95;8.85;;;15.40;99.00;;;;;;6179187;23;20374;-83
2022/03/16 11:30:43;;;;;;;13.27;9.75;;;15.30;99.00;;;;;;6154391;23;20029;-84
2022/03/16 11:33:12;;;;;;;12.73;8.80;;;15.40;98.70;;;;;;6154035;23;20517;-84
2022/03/16 11:35:45;;;;;;;13.35;8.82;;;15.50;99.30;;;;;;6179382;22;20503;-85
2022/03/16 11:38:15;;;;;;;15.45;9.30;;;15.80;99.40;;;;;;6179316;23;20019;-85
2022/03/16 11:40:44;;;;;;;12.60;8.70;;;16.20;99.00;;;;;;6179461;23;20013;-85
2022/03/16 11:43:15;;;;;;;12.50;8.00;;;16.10;99.00;;;;;;6179089;23;20031;-88
2022/03/16 11:45:50;;;;;;;13.63;8.57;;;16.00;95.10;;;;;;6129781;23;20071;-84
2022/03/16 11:48:35;;;;;;;17.20;9.27;;;16.00;96.50;;;;;;6179261;23;20162;-84
2022/03/16 11:51:13;;;;;;;13.88;8.43;;;16.10;96.20;;;;;;6179334;23;20028;-85
2022/03/16 11:54:01;;;;;;;14.20;8.90;;;16.30;96.30;;;;;;6179383;23;20036;-84
2022/03/16 11:56:46;;;;;;;16.00;8.60;;;16.40;96.30;;;;;;6149501;23;20201;-85
2022/03/16 11:59:23;;;;;;;16.25;8.93;;;16.40;95.80;;;;;;6149391;23;20206;-84
2022/03/16 12:01:52;;;;;;;13.48;8.57;;;16.50;96.40;;;;;;6162194;23;20020;-84
2022/03/16 12:04:32;;;;;;;15.90;8.20;;;16.50;95.90;;;;;;6214230;23;20024;-86
2022/03/16 12:07:12;;;;;;;17.25;9.52;;;16.50;95.00;;;;;;6240002;23;20020;-87
2022/03/16 12:10:00;;;;;;;13.70;8.40;;;16.60;94.80;;;;;;6240074;23;20016;-85
2022/03/16 12:15:31;;;;;;;17.90;8.82;;;16.80;94.60;;;;;;6213131;23;20020;-85
2022/03/16 12:17:57;;;;;;;14.48;8.68;;;17.00;93.80;;;;;;6239538;23;20086;-87
2022/03/16 12:20:23;;;;;;;14.63;8.48;;;17.00;94.50;;;;;;6239883;23;20028;-84
2022/03/16 12:22:54;;;;;;;14.65;9.10;;;17.10;92.90;;;;;;6239480;23;20062;-84
2022/03/16 12:25:29;;;;;;;17.23;9.07;;;17.10;94.00;;;;;;6214053;23;20345;-88
2022/03/16 12:30:46;;;;;;;12.93;8.32;;;17.20;93.40;;;;;;6272677;22;20026;-84
2022/03/16 12:33:19;;;;;;;13.45;8.77;;;17.10;93.40;;;;;;6272833;22;20023;-87
2022/03/16 12:36:14;;;;;;;14.43;8.85;;;17.20;92.90;;;;;;6271569;22;20015;-85
2022/03/16 12:38:46;;;;;;;17.15;9.23;;;17.40;92.50;;;;;;6267626;22;20012;-89
2022/03/16 12:44:02;;;;;;;14.25;8.57;;;17.50;92.70;;;;;;6273845;22;20023;-92
2022/03/16 12:46:43;;;;;;;12.20;7.90;;;17.70;90.20;;;;;;6273641;22;20019;-87
2022/03/16 12:49:14;;;;;;;14.40;8.82;;;17.70;90.30;;;;;;6272818;22;20044;-88
2022/03/16 12:51:47;;;;;;;15.63;9.13;;;17.80;91.10;;;;;;6274341;22;20050;-87
2022/03/16 12:54:26;;;;;;;15.70;9.43;;;17.90;91.00;;;;;;6274965;22;20086;-89
2022/03/16 12:57:01;;;;;;;13.65;8.98;;;17.80;89.00;;;;;;6274393;22;20329;-92
2022/03/16 12:59:34;;;;;;;14.13;8.15;;;17.90;89.10;;;;;;6247783;22;20024;-90
2022/03/16 13:02:03;;;;;;;12.10;8.25;;;18.00;85.80;;;;;;6274198;22;20018;-89
2022/03/16 13:04:29;;;;;;;15.57;8.55;;;18.10;87.90;;;;;;6246596;22;20023;-86
2022/03/16 13:06:57;;;;;;;16.27;8.82;;;18.30;85.40;;;;;;6272760;22;20016;-88